Time;durP1;ratioP1;P1;durP2;ratioP2;P2;SDS_P1;SDS_P2;PMS_P1;PMS_P2;Temp;Humidity;BMP_temperature;BMP_pressure;BME280_temperature;BME280_humidity;BME280_pressure;Samples;Min_cycle;Max_cycle;Signal;HPM_P1;HPM_P2
2021/06/09 00:00:19;;;;;;;12.77;8.77;;;19.60;92.80;;;;;;5033926;28;20432;-89
2021/06/09 00:02:44;;;;;;;15.75;9.27;;;19.60;92.70;;;;;;5036533;28;20041;-87
2021/06/09 00:05:11;;;;;;;15.60;10.00;;;19.60;92.80;;;;;;5050410;28;20160;-85
2021/06/09 00:07:36;;;;;;;14.38;9.25;;;19.60;92.90;;;;;;5036955;28;20036;-85
2021/06/09 00:10:04;;;;;;;13.75;9.45;;;19.60;92.90;;;;;;5033353;28;20017;-84
2021/06/09 00:12:31;;;;;;;12.73;9.20;;;19.60;92.90;;;;;;5037434;28;20389;-81
2021/06/09 00:14:57;;;;;;;13.45;9.13;;;19.60;92.90;;;;;;5036789;28;20033;-82
2021/06/09 00:17:23;;;;;;;14.73;9.15;;;19.60;92.90;;;;;;5040292;28;20030;-80
2021/06/09 00:19:48;;;;;;;14.65;9.60;;;19.60;92.80;;;;;;5034460;28;20029;-81
2021/06/09 00:22:14;;;;;;;12.27;8.85;;;19.50;92.80;;;;;;5017204;28;20056;-82
2021/06/09 00:24:39;;;;;;;12.85;8.93;;;19.50;92.90;;;;;;5043880;28;20021;-82
2021/06/09 00:27:05;;;;;;;14.10;9.30;;;19.50;92.90;;;;;;5037150;28;20047;-81
2021/06/09 00:29:31;;;;;;;12.45;9.38;;;19.60;92.90;;;;;;5037300;28;20466;-82
2021/06/09 00:31:57;;;;;;;14.10;9.43;;;19.60;92.90;;;;;;5036279;28;20033;-79
2021/06/09 00:34:23;;;;;;;13.63;9.27;;;19.60;93.10;;;;;;5037012;28;20041;-81
2021/06/09 00:36:48;;;;;;;13.60;9.30;;;19.50;92.80;;;;;;5036840;28;20025;-79
2021/06/09 00:39:14;;;;;;;13.75;9.93;;;19.60;92.70;;;;;;5036470;28;20167;-80
2021/06/09 00:41:40;;;;;;;14.65;10.30;;;19.50;92.80;;;;;;5036692;28;20033;-80
2021/06/09 00:44:06;;;;;;;13.18;9.82;;;19.40;92.90;;;;;;5036405;28;20040;-81
2021/06/09 00:46:37;;;;;;;14.23;10.50;;;19.40;93.00;;;;;;5032246;28;20029;-81
2021/06/09 00:49:04;;;;;;;15.20;10.57;;;19.30;93.10;;;;;;5061062;28;20029;-81
2021/06/09 00:51:30;;;;;;;14.48;9.77;;;19.30;93.30;;;;;;5051449;28;20219;-86
2021/06/09 00:54:06;;;;;;;14.60;10.38;;;19.30;93.20;;;;;;5036578;28;20515;-83
2021/06/09 00:56:35;;;;;;;15.68;10.32;;;19.30;93.30;;;;;;5054354;28;20029;-85
2021/06/09 00:59:01;;;;;;;17.42;10.23;;;19.30;93.20;;;;;;5036037;28;20029;-85
2021/06/09 01:01:29;;;;;;;14.95;9.15;;;19.30;93.10;;;;;;5036156;28;20148;-78
2021/06/09 01:03:55;;;;;;;13.70;9.55;;;19.40;93.10;;;;;;5046031;28;20473;-78
2021/06/09 01:06:21;;;;;;;13.85;10.00;;;19.40;93.00;;;;;;5056414;28;20079;-84
2021/06/09 01:08:48;;;;;;;14.50;9.95;;;19.30;93.00;;;;;;5059552;28;20489;-81
2021/06/09 01:11:27;;;;;;;13.00;9.00;;;19.30;93.10;;;;;;5054975;28;20051;-82
2021/06/09 01:13:54;;;;;;;14.00;10.00;;;19.40;93.10;;;;;;5051551;28;20135;-83
2021/06/09 01:16:20;;;;;;;16.75;10.05;;;19.40;93.10;;;;;;5073508;28;20090;-87
2021/06/09 01:18:47;;;;;;;14.40;9.63;;;19.40;93.10;;;;;;5016260;28;20029;-82
2021/06/09 01:21:12;;;;;;;14.70;9.95;;;19.30;93.00;;;;;;5035656;28;20033;-83
2021/06/09 01:23:39;;;;;;;13.95;9.77;;;19.30;93.20;;;;;;5036125;28;20033;-79
2021/06/09 01:26:07;;;;;;;14.65;9.77;;;19.30;93.20;;;;;;5035563;28;20029;-83
2021/06/09 01:28:35;;;;;;;13.18;9.70;;;19.30;93.40;;;;;;5036327;28;20377;-83
2021/06/09 01:31:01;;;;;;;15.27;10.15;;;19.20;93.40;;;;;;5053197;28;20507;-83
2021/06/09 01:33:27;;;;;;;17.08;9.85;;;19.20;93.50;;;;;;5069815;28;20056;-79
2021/06/09 01:35:54;;;;;;;17.85;9.63;;;19.30;93.40;;;;;;5055182;28;20025;-83
2021/06/09 01:38:21;;;;;;;15.75;9.32;;;19.30;93.30;;;;;;5055777;28;20028;-83
2021/06/09 01:40:46;;;;;;;15.55;9.68;;;19.30;93.20;;;;;;5055951;28;20047;-82
2021/06/09 01:43:13;;;;;;;16.83;10.38;;;19.20;93.30;;;;;;5073642;28;20465;-85
2021/06/09 01:45:39;;;;;;;16.45;11.02;;;19.20;93.50;;;;;;5056284;28;20051;-84
2021/06/09 01:48:06;;;;;;;14.02;10.52;;;19.10;93.70;;;;;;5041324;28;20090;-82
2021/06/09 01:50:33;;;;;;;15.70;10.45;;;19.00;93.80;;;;;;5035346;28;20484;-82
2021/06/09 01:53:03;;;;;;;17.77;10.40;;;19.10;93.90;;;;;;5035248;28;20033;-84
2021/06/09 01:55:30;;;;;;;14.13;10.55;;;19.10;93.80;;;;;;5053463;28;20013;-82
2021/06/09 01:57:56;;;;;;;16.20;10.85;;;19.10;93.80;;;;;;5034984;28;20029;-80
2021/06/09 02:00:28;;;;;;;16.92;10.05;;;19.10;93.80;;;;;;5035129;28;20099;-80
2021/06/09 02:02:59;;;;;;;14.02;10.07;;;19.10;93.80;;;;;;5035577;28;20048;-80
2021/06/09 02:05:31;;;;;;;14.77;10.10;;;19.10;93.90;;;;;;5053436;28;20103;-81
2021/06/09 02:07:58;;;;;;;18.13;10.68;;;19.00;93.90;;;;;;5035706;28;20029;-82
2021/06/09 02:10:26;;;;;;;17.90;10.25;;;19.00;94.00;;;;;;5035679;28;20056;-83
2021/06/09 02:13:00;;;;;;;16.38;10.80;;;19.00;93.90;;;;;;5036089;28;20036;-81
2021/06/09 02:15:27;;;;;;;15.23;9.65;;;19.00;93.90;;;;;;5053661;28;20377;-81
2021/06/09 02:18:15;;;;;;;14.13;9.45;;;19.00;93.90;;;;;;5035147;28;20440;-81
2021/06/09 02:20:46;;;;;;;15.40;10.27;;;19.00;93.90;;;;;;5035592;28;20054;-82
2021/06/09 02:23:15;;;;;;;13.70;9.80;;;19.00;93.90;;;;;;5053063;28;20025;-84
2021/06/09 02:25:43;;;;;;;15.50;10.52;;;19.00;93.90;;;;;;5036161;28;20033;-84
2021/06/09 02:28:10;;;;;;;15.18;10.43;;;19.00;93.80;;;;;;5053119;28;20029;-85
2021/06/09 02:30:36;;;;;;;15.82;11.00;;;19.00;93.80;;;;;;5035184;28;20474;-85
2021/06/09 02:33:03;;;;;;;17.38;10.00;;;18.90;93.90;;;;;;5034422;28;20052;-83
2021/06/09 02:35:35;;;;;;;14.68;10.35;;;18.90;93.90;;;;;;5035504;28;20061;-81
2021/06/09 02:38:01;;;;;;;;;;;18.90;93.90;;;;;;5034860;28;20029;-79
2021/06/09 02:40:27;;;;;;;15.75;10.52;;;18.90;94.00;;;;;;5035484;28;19927;-82
2021/06/09 02:42:52;;;;;;;15.15;10.85;;;18.80;94.10;;;;;;5035187;28;20036;-78
2021/06/09 02:45:20;;;;;;;19.67;11.57;;;18.80;94.20;;;;;;5034296;28;20091;-81
2021/06/09 02:47:54;;;;;;;15.82;10.43;;;18.80;94.40;;;;;;5034484;28;20025;-86
2021/06/09 02:50:22;;;;;;;14.38;10.40;;;18.70;94.30;;;;;;5034549;28;20017;-81
2021/06/09 02:52:53;;;;;;;16.45;10.73;;;18.80;94.20;;;;;;5034534;28;20041;-83
2021/06/09 02:55:32;;;;;;;;;;;18.80;94.10;;;;;;5034950;28;20021;-83
2021/06/09 02:58:18;;;;;;;15.10;9.88;;;18.80;94.10;;;;;;5052802;28;19967;-84
2021/06/09 03:00:50;;;;;;;15.68;9.98;;;18.80;94.00;;;;;;5035558;28;20116;-84
2021/06/09 03:03:18;;;;;;;18.00;10.18;;;18.80;93.90;;;;;;5034978;28;20052;-83
2021/06/09 03:05:59;;;;;;;14.65;10.43;;;18.80;93.90;;;;;;5035601;28;20029;-83
2021/06/09 03:09:04;;;;;;;15.50;10.60;;;18.80;94.00;;;;;;5036101;28;20045;-83
2021/06/09 03:11:56;;;;;;;14.45;10.52;;;18.70;94.00;;;;;;5027791;28;20041;-83
2021/06/09 03:17:04;;;;;;;16.38;10.40;;;18.70;93.90;;;;;;5056254;28;20029;-83
2021/06/09 03:19:59;;;;;;;17.33;10.50;;;18.80;94.00;;;;;;5038609;28;20021;-83
2021/06/09 03:22:57;;;;;;;15.02;10.00;;;18.70;94.00;;;;;;5029214;28;20033;-83
2021/06/09 03:25:29;;;;;;;15.48;9.68;;;18.70;94.00;;;;;;5038698;28;20033;-83
2021/06/09 03:28:00;;;;;;;14.52;9.63;;;18.70;94.00;;;;;;5038651;28;20028;-83
2021/06/09 03:30:29;;;;;;;16.37;10.73;;;18.70;93.90;;;;;;5037761;28;20111;-84
2021/06/09 03:33:01;;;;;;;20.40;10.18;;;18.70;93.90;;;;;;5037953;28;20052;-82
2021/06/09 03:35:30;;;;;;;13.25;9.75;;;18.70;93.90;;;;;;5038150;28;20463;-83
2021/06/09 03:37:59;;;;;;;14.60;9.93;;;18.70;94.00;;;;;;5038518;28;20017;-84
2021/06/09 03:40:40;;;;;;;16.92;10.32;;;18.70;94.00;;;;;;5037677;28;20033;-83
2021/06/09 03:43:09;;;;;;;17.10;10.57;;;18.70;94.10;;;;;;5037591;28;20040;-83
2021/06/09 03:45:44;;;;;;;16.42;10.32;;;18.70;94.10;;;;;;5038216;28;20037;-83
2021/06/09 03:48:12;;;;;;;17.75;10.63;;;18.70;94.00;;;;;;5055387;28;20021;-79
2021/06/09 03:50:39;;;;;;;17.08;10.55;;;18.60;94.10;;;;;;5037812;28;20033;-83
2021/06/09 03:53:06;;;;;;;13.27;10.07;;;18.60;94.10;;;;;;5037600;28;20036;-80
2021/06/09 03:55:37;;;;;;;15.00;10.52;;;18.70;94.10;;;;;;5038056;28;20017;-82
2021/06/09 03:58:04;;;;;;;16.73;10.75;;;18.70;94.10;;;;;;5037141;28;20384;-84
2021/06/09 04:00:31;;;;;;;18.48;10.85;;;18.60;94.20;;;;;;5037226;28;20115;-78
2021/06/09 04:02:57;;;;;;;17.90;11.50;;;18.60;94.30;;;;;;5036857;28;20056;-78
2021/06/09 04:05:26;;;;;;;17.98;12.35;;;18.60;94.40;;;;;;5036067;28;20033;-78
2021/06/09 04:07:53;;;;;;;19.92;12.07;;;18.70;94.40;;;;;;5037451;28;20035;-84
2021/06/09 04:10:19;;;;;;;18.35;11.98;;;18.70;94.50;;;;;;5054827;28;20053;-83
2021/06/09 04:12:45;;;;;;;18.50;12.20;;;18.70;94.50;;;;;;5036975;28;20449;-83
2021/06/09 04:15:13;;;;;;;19.05;11.80;;;18.70;94.50;;;;;;5036565;28;20104;-83
2021/06/09 04:17:40;;;;;;;21.08;13.48;;;18.70;94.60;;;;;;5037649;28;20034;-87
2021/06/09 04:20:08;;;;;;;19.35;14.05;;;18.60;94.60;;;;;;5036102;28;20071;-81
2021/06/09 04:22:34;;;;;;;20.73;12.70;;;18.50;94.70;;;;;;5037022;28;20028;-83
2021/06/09 04:25:02;;;;;;;20.00;12.23;;;18.60;94.60;;;;;;5037458;28;20033;-81
2021/06/09 04:27:35;;;;;;;21.38;12.68;;;18.60;94.50;;;;;;5036963;28;20024;-81
2021/06/09 04:30:01;;;;;;;22.33;13.18;;;18.70;94.50;;;;;;5037630;28;20386;-84
2021/06/09 04:32:27;;;;;;;17.95;12.30;;;18.60;94.40;;;;;;5054321;28;20029;-82
2021/06/09 04:34:55;;;;;;;18.48;12.20;;;18.70;94.40;;;;;;5055267;28;20021;-83
2021/06/09 04:37:24;;;;;;;19.35;12.75;;;18.70;94.50;;;;;;5019976;28;20056;-80
2021/06/09 04:39:51;;;;;;;19.05;12.75;;;18.70;94.60;;;;;;5054245;28;20135;-86
2021/06/09 04:42:19;;;;;;;20.10;12.60;;;18.70;94.60;;;;;;5035744;28;20028;-80
2021/06/09 04:44:45;;;;;;;17.63;11.60;;;18.70;94.50;;;;;;5036784;28;20029;-83
2021/06/09 04:47:12;;;;;;;18.52;11.85;;;18.80;94.60;;;;;;5054134;28;20468;-79
2021/06/09 04:49:44;;;;;;;17.98;11.82;;;18.80;94.60;;;;;;5036930;28;20478;-84
2021/06/09 04:52:10;;;;;;;19.23;12.02;;;18.80;94.60;;;;;;5036669;28;20029;-88
2021/06/09 04:54:38;;;;;;;20.52;12.25;;;18.70;94.70;;;;;;5036756;28;20025;-82
2021/06/09 04:57:05;;;;;;;18.23;11.38;;;18.80;95.00;;;;;;5036722;28;20155;-81
2021/06/09 04:59:31;;;;;;;21.08;11.57;;;18.80;94.70;;;;;;5036459;28;20025;-85
2021/06/09 05:01:57;;;;;;;18.25;12.15;;;18.80;94.80;;;;;;5036751;28;20068;-83
2021/06/09 05:04:22;;;;;;;16.48;11.38;;;18.80;94.80;;;;;;5036251;28;20082;-82
2021/06/09 05:06:48;;;;;;;18.73;12.45;;;18.90;94.60;;;;;;5036258;28;20350;-82
2021/06/09 05:09:14;;;;;;;19.65;12.50;;;18.90;94.40;;;;;;5035851;28;20051;-83
2021/06/09 05:11:58;;;;;;;19.40;12.82;;;19.00;94.30;;;;;;5036584;28;20056;-85
2021/06/09 05:14:40;;;;;;;21.02;11.80;;;19.00;94.40;;;;;;5053710;28;20029;-83
2021/06/09 05:17:06;;;;;;;18.55;12.02;;;19.00;94.40;;;;;;5053977;28;20059;-82
2021/06/09 05:19:34;;;;;;;21.17;13.45;;;18.90;94.50;;;;;;5036332;28;20112;-81
2021/06/09 05:22:14;;;;;;;23.10;14.20;;;18.90;94.60;;;;;;5053822;28;20091;-82
2021/06/09 05:24:41;;;;;;;23.15;13.30;;;18.90;94.60;;;;;;5053764;28;20086;-80
2021/06/09 05:27:07;;;;;;;21.05;13.52;;;18.90;94.70;;;;;;5036015;28;20112;-82
2021/06/09 05:29:35;;;;;;;22.20;13.70;;;18.90;94.70;;;;;;5053968;28;20104;-82
2021/06/09 05:32:02;;;;;;;19.40;13.25;;;19.00;94.60;;;;;;5035317;28;20036;-80
2021/06/09 05:34:29;;;;;;;20.10;13.35;;;19.00;94.70;;;;;;5035506;28;20513;-84
2021/06/09 05:36:55;;;;;;;20.98;13.25;;;19.00;94.50;;;;;;5035644;28;20040;-82
2021/06/09 05:39:22;;;;;;;20.85;13.93;;;19.00;94.40;;;;;;5052760;28;20104;-83
2021/06/09 05:41:47;;;;;;;23.50;13.65;;;19.00;94.20;;;;;;5032522;28;20699;-82
2021/06/09 05:44:14;;;;;;;21.20;14.13;;;18.90;94.30;;;;;;5015749;28;20038;-82
2021/06/09 05:46:40;;;;;;;22.10;13.77;;;18.90;94.30;;;;;;5016488;28;20474;-81
2021/06/09 05:49:06;;;;;;;19.50;13.02;;;19.00;94.40;;;;;;5016261;28;20029;-80
2021/06/09 05:51:32;;;;;;;20.23;12.85;;;19.10;94.10;;;;;;5015947;28;20415;-81
2021/06/09 05:53:58;;;;;;;19.10;12.75;;;19.10;93.90;;;;;;5015804;28;20471;-80
2021/06/09 05:56:24;;;;;;;22.05;13.27;;;19.10;93.90;;;;;;5033088;28;20034;-80
2021/06/09 05:58:50;;;;;;;19.52;13.30;;;19.10;93.80;;;;;;5016232;28;20026;-80
2021/06/09 06:01:16;;;;;;;20.30;13.50;;;19.10;93.70;;;;;;5015072;28;20363;-79
2021/06/09 06:03:44;;;;;;;23.80;13.85;;;19.10;93.60;;;;;;5015445;28;20037;-81
2021/06/09 06:06:15;;;;;;;21.63;12.90;;;19.10;93.80;;;;;;5033380;28;20053;-83
2021/06/09 06:08:43;;;;;;;20.27;13.15;;;19.10;93.80;;;;;;5016526;28;20068;-82
2021/06/09 06:11:14;;;;;;;24.40;12.35;;;19.10;93.00;;;;;;5032900;28;20033;-85
2021/06/09 06:13:42;;;;;;;18.65;13.10;;;19.10;93.10;;;;;;5034221;28;20025;-83
2021/06/09 06:16:12;;;;;;;19.85;12.52;;;19.10;93.20;;;;;;5053091;28;20033;-83
2021/06/09 06:18:39;;;;;;;20.77;11.93;;;19.10;93.00;;;;;;5035564;28;20110;-82
2021/06/09 06:21:08;;;;;;;19.13;11.40;;;19.20;92.70;;;;;;5035674;28;20029;-83
2021/06/09 06:23:35;;;;;;;16.27;10.40;;;19.30;92.30;;;;;;5035251;28;20029;-82
2021/06/09 06:26:01;;;;;;;18.58;10.45;;;19.30;91.80;;;;;;5035616;28;20083;-84
2021/06/09 06:28:27;;;;;;;15.35;9.32;;;19.30;92.00;;;;;;5034675;28;20405;-83
2021/06/09 06:30:54;;;;;;;17.58;10.85;;;19.30;91.30;;;;;;5052845;28;20109;-84
2021/06/09 06:33:27;;;;;;;16.70;10.48;;;19.30;91.00;;;;;;5034369;28;20144;-80
2021/06/09 06:35:56;;;;;;;15.75;10.80;;;19.40;90.70;;;;;;5035029;28;20494;-83
2021/06/09 06:38:22;;;;;;;16.92;10.57;;;19.30;90.60;;;;;;5034978;28;20371;-82
2021/06/09 06:40:48;;;;;;;17.05;11.80;;;19.30;90.40;;;;;;5053050;28;20025;-87
2021/06/09 06:43:14;;;;;;;18.10;11.35;;;19.40;90.70;;;;;;5035661;28;20029;-82
2021/06/09 06:45:40;;;;;;;15.23;10.80;;;19.40;91.20;;;;;;5038727;28;20120;-83
2021/06/09 06:48:06;;;;;;;20.20;11.63;;;19.50;91.30;;;;;;5039569;28;20069;-85
2021/06/09 06:50:33;;;;;;;19.75;11.60;;;19.50;90.90;;;;;;5056452;28;20098;-82
2021/06/09 06:53:04;;;;;;;17.55;12.25;;;19.50;91.10;;;;;;5038787;28;20041;-80
2021/06/09 06:55:30;;;;;;;18.67;11.98;;;19.50;91.10;;;;;;5037930;28;20021;-82
2021/06/09 06:57:56;;;;;;;23.60;15.18;;;19.50;91.20;;;;;;5038719;28;20381;-79
2021/06/09 07:00:23;;;;;;;38.25;22.75;;;19.50;91.40;;;;;;5037907;28;20112;-80
2021/06/09 07:02:57;;;;;;;25.65;14.85;;;19.50;91.50;;;;;;5038347;28;20044;-80
2021/06/09 07:05:26;;;;;;;25.20;14.60;;;19.60;91.50;;;;;;5038342;28;20029;-80
2021/06/09 07:07:54;;;;;;;25.08;13.77;;;19.70;91.40;;;;;;5056632;28;20021;-80
2021/06/09 07:10:21;;;;;;;23.63;14.65;;;19.60;91.60;;;;;;5037812;28;20397;-77
2021/06/09 07:12:48;;;;;;;22.70;13.90;;;19.70;91.50;;;;;;5038233;28;20029;-81
2021/06/09 07:15:20;;;;;;;22.40;13.50;;;19.70;91.80;;;;;;5038464;28;20112;-83
2021/06/09 07:17:49;;;;;;;21.63;13.75;;;19.70;91.60;;;;;;5056309;28;20052;-81
2021/06/09 07:20:18;;;;;;;20.25;13.30;;;19.80;91.70;;;;;;5038110;28;20033;-82
2021/06/09 07:22:45;;;;;;;22.50;14.32;;;19.80;91.50;;;;;;5038421;28;20029;-81
2021/06/09 07:25:11;;;;;;;21.30;13.77;;;19.80;91.40;;;;;;5038090;28;20032;-82
2021/06/09 07:27:39;;;;;;;22.98;14.23;;;19.90;91.30;;;;;;5037572;28;20045;-79
2021/06/09 07:30:07;;;;;;;22.08;14.57;;;19.90;91.40;;;;;;5055157;28;20033;-79
2021/06/09 07:32:40;;;;;;;21.17;14.45;;;19.90;91.30;;;;;;5036812;28;20033;-78
2021/06/09 07:35:08;;;;;;;23.48;14.55;;;19.90;91.20;;;;;;5055756;28;20029;-79
2021/06/09 07:37:40;;;;;;;26.27;16.15;;;19.90;91.30;;;;;;5054859;28;20028;-78
2021/06/09 07:40:07;;;;;;;23.58;15.30;;;19.90;91.20;;;;;;5055418;28;20029;-81
2021/06/09 07:42:34;;;;;;;23.88;15.15;;;20.00;91.20;;;;;;5036638;28;20033;-78
2021/06/09 07:45:05;;;;;;;21.02;13.88;;;20.00;91.20;;;;;;5054825;28;20025;-79
2021/06/09 07:47:32;;;;;;;25.45;14.65;;;20.10;91.20;;;;;;5036454;28;20477;-79
2021/06/09 07:49:59;;;;;;;23.13;14.43;;;20.10;91.10;;;;;;5037647;28;20025;-82
2021/06/09 07:52:27;;;;;;;26.65;14.70;;;20.10;90.90;;;;;;5037011;28;20029;-77
2021/06/09 07:54:54;;;;;;;23.55;13.98;;;20.20;90.60;;;;;;5053559;28;20036;-80
2021/06/09 07:57:21;;;;;;;25.13;14.10;;;20.20;90.60;;;;;;5036431;28;20021;-80
2021/06/09 07:59:49;;;;;;;21.98;13.35;;;20.20;90.60;;;;;;5036772;28;20032;-80
2021/06/09 08:02:20;;;;;;;26.42;13.75;;;20.30;90.80;;;;;;5036793;28;20044;-82
2021/06/09 08:04:46;;;;;;;20.63;12.90;;;20.30;91.10;;;;;;5037276;28;20029;-81
2021/06/09 08:07:12;;;;;;;23.80;13.77;;;20.30;90.90;;;;;;5037229;28;20029;-78
2021/06/09 08:09:38;;;;;;;23.50;13.80;;;20.40;90.50;;;;;;5053967;28;20504;-80
2021/06/09 08:12:05;;;;;;;21.50;13.95;;;20.40;90.20;;;;;;5054952;28;20136;-80
2021/06/09 08:14:32;;;;;;;22.33;13.65;;;20.40;90.10;;;;;;5049655;28;20029;-81
2021/06/09 08:16:58;;;;;;;27.17;14.45;;;20.40;89.90;;;;;;5054521;28;20036;-81
2021/06/09 08:19:24;;;;;;;24.83;14.85;;;20.40;89.60;;;;;;5035323;28;20029;-79
2021/06/09 08:21:50;;;;;;;21.67;14.07;;;20.40;90.00;;;;;;5035403;28;20060;-79
2021/06/09 08:24:16;;;;;;;22.95;14.45;;;20.50;89.90;;;;;;5053877;28;20029;-79
2021/06/09 08:26:42;;;;;;;20.42;12.98;;;20.50;89.80;;;;;;5035465;28;20032;-80
2021/06/09 08:29:09;;;;;;;21.85;14.70;;;20.60;89.90;;;;;;5054410;28;20032;-76
2021/06/09 08:31:36;;;;;;;22.35;13.65;;;20.60;89.60;;;;;;5035245;28;20041;-81
2021/06/09 08:34:03;;;;;;;20.75;13.15;;;20.60;89.70;;;;;;5053927;28;20052;-82
2021/06/09 08:36:30;;;;;;;18.98;12.27;;;20.60;90.30;;;;;;5052863;28;20028;-83
2021/06/09 08:38:58;;;;;;;19.15;12.52;;;20.70;90.10;;;;;;5054023;28;20052;-80
2021/06/09 08:41:28;;;;;;;24.17;15.02;;;20.70;90.00;;;;;;5052619;28;20060;-79
2021/06/09 08:43:56;;;;;;;19.65;13.35;;;20.70;90.20;;;;;;5035915;28;20021;-81
2021/06/09 08:46:22;;;;;;;20.25;13.20;;;20.80;90.20;;;;;;5031494;28;20029;-79
2021/06/09 08:48:47;;;;;;;21.63;13.50;;;20.80;90.20;;;;;;5029783;28;20207;-78
2021/06/09 08:51:16;;;;;;;21.60;14.05;;;20.80;90.10;;;;;;5046765;28;20111;-78
2021/06/09 08:53:47;;;;;;;21.50;12.90;;;20.80;90.10;;;;;;5033296;28;20469;-77
2021/06/09 08:56:14;;;;;;;25.40;14.23;;;20.90;90.30;;;;;;5032173;28;20070;-78
2021/06/09 08:58:41;;;;;;;20.00;12.85;;;21.00;90.30;;;;;;5034489;28;20036;-78
2021/06/09 09:01:08;;;;;;;20.75;13.32;;;21.00;90.20;;;;;;5035226;28;20118;-78
2021/06/09 09:03:38;;;;;;;21.13;12.93;;;21.00;90.00;;;;;;5049875;28;20049;-79
2021/06/09 09:06:04;;;;;;;19.58;12.05;;;21.10;89.30;;;;;;5051945;28;20025;-77
2021/06/09 09:08:31;;;;;;;18.88;12.88;;;21.10;89.20;;;;;;5034294;28;20043;-76
2021/06/09 09:10:56;;;;;;;21.55;13.32;;;21.10;88.40;;;;;;5052159;28;20473;-76
2021/06/09 09:13:24;;;;;;;18.63;12.50;;;21.10;88.40;;;;;;5048957;28;20031;-78
2021/06/09 09:15:50;;;;;;;19.67;13.15;;;21.20;88.40;;;;;;5031473;28;20029;-77
2021/06/09 09:18:15;;;;;;;19.08;12.75;;;21.20;88.90;;;;;;5034722;28;20454;-78
2021/06/09 09:20:44;;;;;;;21.77;13.93;;;21.20;88.80;;;;;;5034278;28;20029;-78
2021/06/09 09:23:25;;;;;;;18.00;12.73;;;21.30;89.40;;;;;;5033893;28;20025;-77
2021/06/09 09:25:54;;;;;;;21.88;12.30;;;21.30;88.80;;;;;;5036084;28;20041;-77
2021/06/09 09:28:34;;;;;;;19.58;12.63;;;21.30;89.00;;;;;;5016598;28;20448;-78
2021/06/09 09:31:12;;;;;;;17.25;11.25;;;21.40;89.40;;;;;;5017013;28;20033;-77
2021/06/09 09:33:39;;;;;;;16.10;11.25;;;21.40;88.20;;;;;;5032973;28;20057;-77
2021/06/09 09:36:27;;;;;;;15.60;11.32;;;21.50;87.10;;;;;;5034577;28;20029;-77
2021/06/09 09:38:54;;;;;;;15.43;11.15;;;21.50;86.40;;;;;;5033854;28;20041;-77
2021/06/09 09:41:21;;;;;;;15.82;10.95;;;21.60;86.60;;;;;;5036667;28;20031;-77
2021/06/09 09:43:56;;;;;;;16.95;11.93;;;21.60;86.60;;;;;;5017932;28;20421;-77
2021/06/09 09:46:23;;;;;;;18.50;12.60;;;21.60;87.00;;;;;;5016218;28;20021;-77
2021/06/09 09:49:02;;;;;;;20.98;13.95;;;21.60;87.00;;;;;;5015238;28;20036;-77
2021/06/09 09:51:30;;;;;;;19.33;12.85;;;21.70;87.70;;;;;;5012758;28;20036;-76
2021/06/09 09:53:58;;;;;;;20.55;12.50;;;21.80;87.40;;;;;;5035995;28;20025;-77
2021/06/09 09:56:30;;;;;;;15.60;10.82;;;21.90;86.10;;;;;;5034117;28;20025;-77
2021/06/09 09:59:05;;;;;;;14.02;10.30;;;21.90;86.30;;;;;;5017184;28;20458;-77
2021/06/09 10:01:36;;;;;;;16.35;11.32;;;22.00;85.60;;;;;;5013762;28;20022;-78
2021/06/09 10:04:04;;;;;;;16.00;10.52;;;22.10;85.00;;;;;;5034594;28;20037;-77
2021/06/09 10:06:34;;;;;;;14.25;10.10;;;22.10;84.10;;;;;;5013667;28;20048;-77
2021/06/09 10:09:09;;;;;;;13.63;9.82;;;22.20;82.90;;;;;;5017131;28;20033;-76
2021/06/09 10:11:39;;;;;;;14.05;10.27;;;22.20;82.50;;;;;;5020328;28;20040;-76
2021/06/09 10:14:14;;;;;;;12.43;9.30;;;22.30;82.30;;;;;;5034774;28;20025;-78
2021/06/09 10:16:41;;;;;;;11.93;9.40;;;22.40;82.90;;;;;;5030013;28;20040;-80
2021/06/09 10:19:12;;;;;;;12.55;9.20;;;22.50;85.20;;;;;;5051311;28;20462;-81
2021/06/09 10:21:54;;;;;;;11.13;8.45;;;22.70;83.60;;;;;;5037108;28;20364;-81
2021/06/09 10:24:22;;;;;;;11.85;9.13;;;22.80;78.80;;;;;;5037767;28;20028;-80
2021/06/09 10:26:57;;;;;;;15.95;11.13;;;23.00;78.70;;;;;;5038000;28;20025;-77
2021/06/09 10:29:28;;;;;;;14.48;10.05;;;23.10;79.00;;;;;;5022369;28;20029;-77
2021/06/09 10:32:00;;;;;;;13.73;9.23;;;23.20;78.70;;;;;;5051204;28;20170;-78
2021/06/09 10:34:29;;;;;;;14.68;9.95;;;23.40;78.20;;;;;;5055545;28;20060;-78
2021/06/09 10:36:56;;;;;;;12.32;9.20;;;23.50;78.20;;;;;;5035120;28;20036;-78
2021/06/09 10:39:24;;;;;;;14.85;9.15;;;23.50;75.80;;;;;;5036550;28;20466;-78
2021/06/09 10:41:53;;;;;;;12.10;8.88;;;23.50;76.00;;;;;;5036482;28;20166;-73
2021/06/09 10:44:21;;;;;;;11.07;8.40;;;23.60;75.50;;;;;;5054096;28;20029;-74
2021/06/09 10:46:49;;;;;;;12.05;8.15;;;23.70;76.40;;;;;;5036758;28;20069;-75
2021/06/09 10:49:18;;;;;;;9.95;7.47;;;23.70;74.30;;;;;;5037512;28;20029;-74
2021/06/09 10:51:50;;;;;;;9.38;7.30;;;23.70;74.10;;;;;;5033864;28;20057;-75
2021/06/09 10:54:16;;;;;;;10.48;7.85;;;23.70;75.70;;;;;;5036249;28;20034;-74
2021/06/09 10:56:48;;;;;;;9.93;7.82;;;23.70;74.30;;;;;;5051385;28;20075;-75
2021/06/09 10:59:23;;;;;;;10.35;7.22;;;23.60;72.90;;;;;;5037245;28;20482;-74
2021/06/09 11:01:51;;;;;;;10.95;6.85;;;23.60;73.50;;;;;;5055269;28;20033;-75
2021/06/09 11:04:17;;;;;;;8.15;6.65;;;23.60;74.20;;;;;;5035734;28;20025;-75
2021/06/09 11:06:50;;;;;;;7.03;5.90;;;23.60;74.10;;;;;;5034838;28;20028;-75
2021/06/09 11:09:28;;;;;;;8.57;6.53;;;23.60;71.10;;;;;;5051834;28;20023;-75
2021/06/09 11:12:12;;;;;;;8.23;6.55;;;23.60;71.10;;;;;;5033546;28;20036;-75
2021/06/09 11:14:55;;;;;;;8.13;6.32;;;23.60;70.80;;;;;;5034354;28;20110;-75
2021/06/09 11:17:48;;;;;;;8.77;6.43;;;23.50;71.40;;;;;;5016603;28;20462;-75
2021/06/09 11:36:31;;;;;;;10.48;7.63;;;23.50;73.50;;;;;;5237153;22;20113;-76
2021/06/09 11:39:10;;;;;;;10.63;7.53;;;23.50;73.90;;;;;;5020032;28;20072;-76
2021/06/09 11:41:42;;;;;;;9.05;6.93;;;23.50;73.80;;;;;;5014497;28;20029;-75
2021/06/09 11:44:24;;;;;;;10.40;7.10;;;23.50;74.00;;;;;;5035064;28;20040;-75
2021/06/09 11:46:50;;;;;;;10.65;6.43;;;23.50;73.40;;;;;;5016077;28;20078;-77
2021/06/09 11:49:23;;;;;;;10.48;6.93;;;23.50;72.50;;;;;;5016598;28;20034;-78
2021/06/09 11:52:00;;;;;;;9.40;6.65;;;23.60;72.80;;;;;;5016186;28;20060;-78
2021/06/09 12:08:11;;;;;;;11.48;7.97;;;23.80;72.60;;;;;;5263156;23;20058;-81
2021/06/09 12:10:36;;;;;;;12.50;9.20;;;23.80;73.00;;;;;;5016262;28;20402;-82
2021/06/09 12:13:02;;;;;;;13.00;8.73;;;23.80;73.20;;;;;;5016111;28;20041;-82
2021/06/09 12:15:28;;;;;;;11.77;9.15;;;23.70;73.70;;;;;;4989709;28;20091;-82
2021/06/09 12:17:53;;;;;;;11.77;8.80;;;23.70;74.60;;;;;;4994383;28;20026;-81
2021/06/09 12:20:20;;;;;;;11.40;8.18;;;23.70;74.40;;;;;;4996871;28;20034;-82
2021/06/09 12:22:50;;;;;;;11.40;8.10;;;23.80;75.70;;;;;;4995489;28;20160;-82
2021/06/09 12:25:22;;;;;;;12.25;8.38;;;24.00;76.50;;;;;;4997292;28;20117;-82
2021/06/09 12:28:03;;;;;;;12.55;9.30;;;24.10;75.70;;;;;;4997310;28;20025;-81
2021/06/09 12:30:29;;;;;;;11.10;8.40;;;24.20;74.50;;;;;;5014516;28;20041;-82
2021/06/09 12:32:55;;;;;;;13.00;9.02;;;24.30;74.00;;;;;;4997056;28;20523;-81
2021/06/09 12:35:22;;;;;;;12.13;8.57;;;24.40;73.20;;;;;;5014193;28;20033;-81
2021/06/09 12:37:54;;;;;;;12.75;8.93;;;24.50;73.60;;;;;;4997163;28;20476;-81
2021/06/09 12:40:26;;;;;;;11.25;8.35;;;24.70;74.10;;;;;;4996532;28;20029;-80
2021/06/09 12:43:03;;;;;;;12.35;8.30;;;24.70;70.80;;;;;;5014200;28;20124;-83
2021/06/09 12:45:30;;;;;;;10.80;7.55;;;24.90;70.90;;;;;;4983332;28;20080;-82
2021/06/09 12:48:08;;;;;;;9.32;7.35;;;25.00;69.70;;;;;;4992257;28;20356;-82
2021/06/09 12:50:39;;;;;;;9.23;7.22;;;25.10;69.10;;;;;;4996987;28;20025;-82
2021/06/09 12:53:20;;;;;;;6.90;5.68;;;25.20;68.00;;;;;;5008601;28;20137;-87
2021/06/09 12:55:53;;;;;;;7.07;5.72;;;25.40;67.60;;;;;;4984075;28;20104;-87
2021/06/09 12:58:25;;;;;;;7.88;5.22;;;25.50;65.30;;;;;;4991918;28;20026;-81
2021/06/09 13:01:02;;;;;;;5.68;4.20;;;25.60;63.60;;;;;;4996865;28;20029;-83
2021/06/09 13:03:29;;;;;;;8.02;4.18;;;25.80;58.90;;;;;;5014016;28;20033;-84
2021/06/09 13:05:59;;;;;;;5.60;3.85;;;25.90;58.70;;;;;;4996709;28;20462;-84
2021/06/09 13:08:43;;;;;;;7.40;4.70;;;26.00;57.40;;;;;;4993028;28;20077;-83
2021/06/09 13:11:17;;;;;;;6.80;5.07;;;26.20;58.20;;;;;;4980599;28;20077;-84
2021/06/09 13:13:49;;;;;;;5.38;4.75;;;26.30;58.80;;;;;;4980884;28;20026;-83